Time;durP1;ratioP1;P1;durP2;ratioP2;P2;SDS_P1;SDS_P2;PMS_P1;PMS_P2;Temp;Humidity;BMP_temperature;BMP_pressure;BME280_temperature;BME280_humidity;BME280_pressure;Samples;Min_cycle;Max_cycle;Signal;HPM_P1;HPM_P2
2022/03/24 00:02:13;;;;;;;16.90;5.10;;;;;;;5.05;39.48;94708.91;5024685;28;20029;-75
2022/03/24 00:04:39;;;;;;;9.75;4.45;;;;;;;5.12;38.57;94712.13;5024496;28;20036;-76
2022/03/24 00:07:05;;;;;;;14.02;5.13;;;;;;;5.18;39.19;94711.09;5024331;28;20089;-76
2022/03/24 00:09:32;;;;;;;19.10;4.50;;;;;;;5.21;39.45;94702.66;5024339;28;20026;-75
2022/03/24 00:11:58;;;;;;;13.45;5.25;;;;;;;5.24;39.16;94696.84;5024239;28;20316;-75
2022/03/24 00:14:23;;;;;;;14.50;5.07;;;;;;;5.27;39.32;94699.00;5024319;28;20026;-74
2022/03/24 00:16:49;;;;;;;14.18;5.68;;;;;;;5.29;39.66;94686.31;5024163;28;20026;-74
2022/03/24 00:19:17;;;;;;;13.77;5.05;;;;;;;5.30;39.61;94689.75;5024305;28;20029;-75
2022/03/24 00:21:43;;;;;;;14.57;6.38;;;;;;;5.32;39.91;94685.78;5006569;28;20237;-75
2022/03/24 00:24:09;;;;;;;11.68;5.90;;;;;;;5.30;40.07;94687.88;5024098;28;20042;-75
2022/03/24 00:26:34;;;;;;;14.50;5.32;;;;;;;5.27;40.74;94677.84;5023671;28;20032;-75
2022/03/24 00:29:02;;;;;;;16.13;5.45;;;;;;;5.21;40.94;94674.38;5024032;28;20021;-75
2022/03/24 00:32:08;;;;;;;14.25;5.32;;;;;;;5.15;40.81;94677.25;5023934;28;20148;-75
2022/03/24 00:34:34;;;;;;;19.85;5.57;;;;;;;5.09;40.95;94670.34;5022315;28;20064;-75
2022/03/24 00:36:59;;;;;;;12.85;5.18;;;;;;;4.98;41.63;94675.59;5006263;28;20026;-75
2022/03/24 00:39:25;;;;;;;17.73;6.13;;;;;;;4.95;42.12;94675.34;5023683;28;20040;-75
2022/03/24 00:41:50;;;;;;;17.77;6.18;;;;;;;4.85;41.85;94676.06;5023893;28;20111;-75
2022/03/24 00:44:19;;;;;;;15.50;5.78;;;;;;;4.82;40.99;94664.19;5023493;28;20068;-75
2022/03/24 00:46:45;;;;;;;18.77;8.02;;;;;;;4.75;41.22;94671.53;5023336;28;20189;-76
2022/03/24 00:49:10;;;;;;;22.63;7.13;;;;;;;4.67;41.82;94664.09;5023544;28;20025;-76
2022/03/24 00:51:36;;;;;;;21.08;7.57;;;;;;;4.55;42.35;94666.94;5023441;28;20064;-76
2022/03/24 00:54:01;;;;;;;20.95;7.97;;;;;;;4.47;42.26;94662.13;5023641;28;20021;-76
2022/03/24 00:56:27;;;;;;;23.10;7.20;;;;;;;4.41;42.27;94666.56;5006070;28;20021;-76
2022/03/24 00:58:52;;;;;;;19.88;7.45;;;;;;;4.34;42.57;94657.31;5023453;28;20022;-75
2022/03/24 01:01:18;;;;;;;17.70;7.00;;;;;;;4.26;42.94;94653.28;5023443;28;20029;-76
2022/03/24 01:03:43;;;;;;;19.13;7.20;;;;;;;4.22;43.29;94655.63;5023665;28;20108;-76
2022/03/24 01:06:10;;;;;;;14.18;6.55;;;;;;;4.21;43.81;94638.22;5023446;28;20025;-75
2022/03/24 01:08:36;;;;;;;16.58;6.57;;;;;;;4.18;44.20;94644.00;5023235;28;20029;-75
2022/03/24 01:11:05;;;;;;;17.73;8.13;;;;;;;4.15;44.31;94635.78;5023321;28;20220;-75
2022/03/24 01:13:32;;;;;;;26.15;9.45;;;;;;;4.04;45.23;94636.75;5023202;28;20022;-75
2022/03/24 01:15:57;;;;;;;20.27;8.27;;;;;;;3.99;45.53;94651.50;5023172;28;20018;-75
2022/03/24 01:18:23;;;;;;;17.77;8.65;;;;;;;3.95;45.65;94642.50;5023248;28;20025;-75
2022/03/24 01:20:49;;;;;;;21.98;8.52;;;;;;;3.89;46.01;94647.97;5023193;28;20018;-75
2022/03/24 01:23:15;;;;;;;19.17;8.07;;;;;;;3.85;46.10;94657.44;5023279;28;20021;-75
2022/03/24 01:25:43;;;;;;;18.58;8.57;;;;;;;3.81;45.86;94649.25;5023215;28;20305;-76
2022/03/24 01:28:12;;;;;;;23.08;8.98;;;;;;;3.78;45.32;94647.09;5023046;28;20097;-76
2022/03/24 01:30:40;;;;;;;23.00;10.13;;;;;;;3.67;45.00;94648.88;5023011;28;20021;-75
2022/03/24 01:33:06;;;;;;;25.92;9.98;;;;;;;3.62;45.52;94638.25;5022801;28;20234;-75
2022/03/24 01:35:31;;;;;;;22.15;8.23;;;;;;;3.54;45.54;94650.06;5023060;28;20076;-75
2022/03/24 01:37:57;;;;;;;31.15;9.48;;;;;;;3.54;45.32;94634.25;5022548;28;20137;-76
2022/03/24 01:40:24;;;;;;;18.13;8.23;;;;;;;3.51;45.33;94639.22;5022414;28;20030;-76
2022/03/24 01:42:50;;;;;;;20.95;8.85;;;;;;;3.50;46.42;94640.25;5022794;28;20101;-76
2022/03/24 01:45:16;;;;;;;32.95;10.60;;;;;;;3.49;46.32;94633.41;5022973;28;20017;-76
2022/03/24 01:47:41;;;;;;;25.00;9.27;;;;;;;3.44;46.88;94623.63;5023134;28;20225;-75
2022/03/24 01:50:09;;;;;;;17.33;8.25;;;;;;;3.36;47.29;94640.66;5022900;28;20096;-76
2022/03/24 01:52:34;;;;;;;23.30;9.20;;;;;;;3.31;47.04;94622.16;5022395;28;20317;-75
2022/03/24 01:55:01;;;;;;;37.58;7.75;;;;;;;3.26;47.79;94621.31;5022580;28;20068;-77
2022/03/24 01:57:28;;;;;;;21.42;7.53;;;;;;;3.19;48.46;94608.34;5022621;28;20034;-75
2022/03/24 01:59:54;;;;;;;17.00;7.55;;;;;;;3.14;48.44;94606.44;5005065;28;20037;-75
2022/03/24 02:02:23;;;;;;;18.98;7.88;;;;;;;3.13;48.96;94617.22;5022765;28;20040;-75
2022/03/24 02:04:49;;;;;;;15.25;7.00;;;;;;;2.99;49.07;94614.16;5022498;28;20038;-74
2022/03/24 02:07:15;;;;;;;17.23;7.72;;;;;;;2.99;48.95;94625.53;5022801;28;20032;-75
2022/03/24 02:09:41;;;;;;;15.32;7.60;;;;;;;2.98;48.64;94623.91;5022572;28;20358;-75
2022/03/24 02:12:09;;;;;;;29.80;8.95;;;;;;;2.93;48.60;94629.16;5022769;28;20093;-75
2022/03/24 02:14:35;;;;;;;27.27;7.40;;;;;;;2.87;48.93;94624.84;5022751;28;20030;-75
2022/03/24 02:17:01;;;;;;;27.45;9.25;;;;;;;2.83;48.36;94623.75;5022531;28;20033;-76
2022/03/24 02:19:28;;;;;;;22.52;8.45;;;;;;;2.83;48.21;94622.94;5022513;28;20026;-75
2022/03/24 02:21:55;;;;;;;25.80;9.30;;;;;;;2.76;48.68;94620.50;5022436;28;20212;-75
2022/03/24 02:24:23;;;;;;;25.70;8.85;;;;;;;2.76;48.85;94620.50;5022457;28;20026;-75
2022/03/24 02:26:49;;;;;;;24.48;9.32;;;;;;;2.69;49.13;94619.91;5022600;28;20045;-75
2022/03/24 02:29:17;;;;;;;31.92;12.10;;;;;;;2.67;49.00;94611.47;5022844;28;20205;-75
2022/03/24 02:31:45;;;;;;;34.40;15.93;;;;;;;2.63;49.11;94616.41;5022300;28;20069;-75
2022/03/24 02:37:01;;;;;;;25.83;9.27;;;;;;;2.57;48.74;94612.91;5022383;28;20087;-75
2022/03/24 02:39:28;;;;;;;21.92;8.27;;;;;;;2.47;48.26;94622.50;5022431;28;20030;-75
2022/03/24 02:41:55;;;;;;;26.05;9.98;;;;;;;2.41;48.16;94611.91;5022327;28;20022;-75
2022/03/24 02:44:23;;;;;;;22.80;9.15;;;;;;;2.37;48.53;94620.53;5022348;28;20049;-75
2022/03/24 02:46:51;;;;;;;20.95;8.35;;;;;;;2.31;49.55;94608.34;5022392;28;20216;-75
2022/03/24 02:49:25;;;;;;;20.13;9.43;;;;;;;2.23;49.36;94604.28;5022333;28;20021;-76
2022/03/24 02:51:53;;;;;;;22.75;9.65;;;;;;;2.23;49.26;94604.28;5015832;28;20054;-75
2022/03/24 02:54:22;;;;;;;26.33;9.63;;;;;;;2.20;49.63;94605.59;5006291;28;20090;-76
2022/03/24 02:56:49;;;;;;;27.17;9.20;;;;;;;2.19;50.13;94609.25;5006237;28;20026;-76
2022/03/24 02:59:15;;;;;;;25.98;9.85;;;;;;;2.19;50.11;94606.59;5006295;28;20046;-76
2022/03/24 03:01:44;;;;;;;29.30;9.40;;;;;;;2.23;50.16;94611.41;5006132;28;20029;-76
2022/03/24 03:04:10;;;;;;;27.05;9.70;;;;;;;2.24;50.33;94607.72;5006178;28;20084;-76
2022/03/24 03:06:36;;;;;;;22.40;9.35;;;;;;;2.25;50.35;94604.06;5006037;28;20034;-76
2022/03/24 03:09:04;;;;;;;31.40;9.70;;;;;;;2.19;50.74;94603.19;5005946;28;20363;-76
2022/03/24 03:11:32;;;;;;;22.08;9.82;;;;;;;2.10;51.21;94597.56;5005901;28;20048;-76
2022/03/24 03:14:00;;;;;;;27.52;10.02;;;;;;;2.14;51.51;94614.44;5005790;28;20046;-75
2022/03/24 03:16:26;;;;;;;28.48;10.75;;;;;;;2.16;51.89;94603.69;5005722;28;20022;-75
2022/03/24 03:18:53;;;;;;;34.47;12.75;;;;;;;2.14;51.76;94606.56;5005824;28;20018;-76
2022/03/24 03:21:20;;;;;;;42.92;16.58;;;;;;;2.12;51.70;94603.38;5005914;28;20093;-77
2022/03/24 03:23:45;;;;;;;43.03;11.85;;;;;;;2.14;51.85;94613.66;5005637;28;20018;-76
2022/03/24 03:26:12;;;;;;;31.73;13.25;;;;;;;2.10;51.61;94608.06;5005796;28;20316;-76
2022/03/24 03:28:39;;;;;;;33.55;10.88;;;;;;;2.10;51.75;94620.44;5005514;28;20360;-76
2022/03/24 03:31:05;;;;;;;29.75;11.52;;;;;;;2.11;51.37;94614.91;5005679;28;20038;-75
2022/03/24 03:33:32;;;;;;;28.80;11.27;;;;;;;2.07;51.30;94615.63;5005564;28;20029;-75
2022/03/24 03:35:58;;;;;;;31.33;11.68;;;;;;;2.05;50.68;94613.25;5005530;28;20026;-75
2022/03/24 03:38:24;;;;;;;33.58;11.40;;;;;;;2.00;50.93;94619.22;5004989;28;20022;-75
2022/03/24 03:40:50;;;;;;;36.70;12.85;;;;;;;2.00;51.10;94613.97;5005842;28;20048;-76
2022/03/24 03:43:15;;;;;;;37.30;13.27;;;;;;;2.01;50.97;94604.25;5005524;28;20054;-77
2022/03/24 03:45:41;;;;;;;30.05;13.38;;;;;;;2.01;50.85;94609.50;4988001;28;20076;-76
2022/03/24 03:48:07;;;;;;;38.20;12.85;;;;;;;2.00;51.17;94610.56;5005332;28;20313;-76
2022/03/24 03:50:32;;;;;;;29.25;12.65;;;;;;;1.97;50.99;94603.13;5005264;28;20018;-76
2022/03/24 03:52:58;;;;;;;33.65;12.50;;;;;;;2.00;51.11;94602.66;5023373;28;20053;-76
2022/03/24 03:55:23;;;;;;;37.90;14.50;;;;;;;1.97;51.03;94609.22;5024810;28;20025;-76
2022/03/24 03:57:49;;;;;;;36.20;14.07;;;;;;;1.94;50.61;94604.41;5024873;28;20037;-76
2022/03/24 04:03:03;;;;;;;31.27;12.38;;;;;;;1.95;50.15;94605.22;5023817;28;20274;-76
2022/03/24 04:05:32;;;;;;;26.17;11.65;;;;;;;1.97;50.32;94609.22;5024415;28;20025;-76
2022/03/24 04:07:58;;;;;;;34.00;11.07;;;;;;;1.96;50.41;94607.59;5024541;28;20029;-76
2022/03/24 04:10:26;;;;;;;27.40;10.90;;;;;;;1.91;50.08;94604.88;5023387;28;20042;-76
2022/03/24 04:12:51;;;;;;;33.65;12.00;;;;;;;1.88;50.22;94607.22;5024525;28;20025;-76
2022/03/24 04:15:17;;;;;;;31.80;12.07;;;;;;;1.86;50.66;94602.19;5024245;28;20029;-75
2022/03/24 04:17:43;;;;;;;41.35;13.18;;;;;;;1.83;50.75;94607.13;5024189;28;20351;-75
2022/03/24 04:20:10;;;;;;;28.17;12.10;;;;;;;1.80;51.58;94606.56;5024244;28;20048;-76
2022/03/24 04:22:36;;;;;;;32.65;12.48;;;;;;;1.77;51.94;94607.06;5024117;28;20033;-75
2022/03/24 04:25:02;;;;;;;46.55;14.35;;;;;;;1.77;51.95;94604.44;5024081;28;20104;-75
2022/03/24 04:27:28;;;;;;;34.05;14.02;;;;;;;1.77;51.52;94593.91;5023950;28;20028;-75
2022/03/24 04:29:53;;;;;;;43.97;14.43;;;;;;;1.77;51.79;94598.34;5024245;28;20049;-75
2022/03/24 04:32:19;;;;;;;43.42;15.25;;;;;;;1.78;52.02;94606.00;5024202;28;20114;-76
2022/03/24 04:34:45;;;;;;;41.17;14.77;;;;;;;1.78;51.77;94595.50;5023917;28;20040;-75
2022/03/24 04:37:11;;;;;;;39.20;15.23;;;;;;;1.77;51.99;94604.44;5023775;28;20018;-75
2022/03/24 04:39:36;;;;;;;42.58;15.63;;;;;;;1.76;52.34;94608.09;5024036;28;20220;-75
2022/03/24 04:42:03;;;;;;;31.17;13.63;;;;;;;1.77;51.76;94608.88;5023793;28;20030;-75
2022/03/24 04:44:29;;;;;;;37.17;15.10;;;;;;;1.79;51.40;94604.16;5023568;28;20024;-77
2022/03/24 04:46:55;;;;;;;29.65;13.35;;;;;;;1.78;51.44;94607.84;5023929;28;20010;-80
2022/03/24 04:49:20;;;;;;;38.50;14.68;;;;;;;1.79;51.51;94607.63;5023964;28;20111;-79
2022/03/24 04:51:48;;;;;;;41.97;14.75;;;;;;;1.76;51.66;94610.72;5023607;28;20064;-79
2022/03/24 04:54:14;;;;;;;39.03;15.07;;;;;;;1.80;51.30;94611.03;5023435;28;20021;-80
2022/03/24 04:56:47;;;;;;;42.55;15.90;;;;;;;1.89;51.28;94614.06;5023714;28;20061;-79
2022/03/24 04:59:12;;;;;;;38.60;16.25;;;;;;;1.92;51.20;94617.00;5023592;28;20034;-82
2022/03/24 05:01:38;;;;;;;41.75;16.80;;;;;;;1.92;50.56;94624.91;5023596;28;20032;-79
2022/03/24 05:04:04;;;;;;;42.05;16.65;;;;;;;1.93;51.03;94618.59;5023423;28;20107;-82
2022/03/24 05:06:31;;;;;;;48.47;16.38;;;;;;;1.99;50.42;94619.47;5023617;28;20037;-81
2022/03/24 05:08:57;;;;;;;38.70;14.93;;;;;;;2.05;50.73;94621.13;5023574;28;20029;-80
2022/03/24 05:11:23;;;;;;;49.35;16.27;;;;;;;2.06;50.64;94617.47;5023274;28;20022;-81
2022/03/24 05:13:50;;;;;;;45.60;16.35;;;;;;;2.09;49.82;94621.44;5022941;28;20319;-81
2022/03/24 05:16:15;;;;;;;46.38;16.38;;;;;;;2.08;49.99;94612.78;5023282;28;20089;-82
2022/03/24 05:18:40;;;;;;;43.20;15.50;;;;;;;2.19;50.10;94624.22;5023156;28;20025;-75
2022/03/24 05:21:06;;;;;;;43.88;16.55;;;;;;;2.26;49.82;94610.91;5023193;28;20029;-75
2022/03/24 05:23:31;;;;;;;38.75;15.98;;;;;;;2.27;49.87;94618.56;5022633;28;20013;-75
2022/03/24 05:25:58;;;;;;;48.67;17.60;;;;;;;2.32;49.58;94616.00;5021627;28;20193;-75
2022/03/24 05:28:25;;;;;;;49.28;16.00;;;;;;;2.37;49.60;94618.69;5022918;28;20048;-75
2022/03/24 05:30:50;;;;;;;52.08;17.02;;;;;;;2.31;50.08;94614.41;5022840;28;20026;-76
2022/03/24 05:33:16;;;;;;;47.35;17.42;;;;;;;2.32;50.28;94616.00;5022306;28;20052;-75
2022/03/24 05:35:42;;;;;;;51.72;17.77;;;;;;;2.29;50.73;94618.31;5021875;28;20209;-75
2022/03/24 05:38:08;;;;;;;45.53;18.00;;;;;;;2.25;50.87;94619.84;5021529;28;20239;-75
2022/03/24 05:40:35;;;;;;;45.83;16.40;;;;;;;2.25;50.74;94619.84;5021626;28;20227;-75
2022/03/24 05:43:01;;;;;;;54.65;18.13;;;;;;;2.23;50.59;94616.66;5021490;28;20029;-75
2022/03/24 05:45:27;;;;;;;46.42;18.27;;;;;;;2.24;50.98;94613.78;5021502;28;20022;-75
2022/03/24 05:47:53;;;;;;;55.30;17.73;;;;;;;2.34;50.47;94613.13;5021757;28;20021;-75
2022/03/24 05:50:18;;;;;;;59.40;18.52;;;;;;;2.33;51.02;94608.91;5022983;28;20260;-75
2022/03/24 05:52:45;;;;;;;44.25;17.95;;;;;;;2.36;51.02;94617.13;5005056;28;20041;-75
2022/03/24 05:55:11;;;;;;;41.10;16.80;;;;;;;2.51;51.00;94610.47;5022801;28;20048;-75
2022/03/24 05:57:37;;;;;;;61.75;21.08;;;;;;;2.53;50.68;94609.16;5022665;28;20029;-75
2022/03/24 06:00:06;;;;;;;57.85;19.42;;;;;;;2.45;51.32;94612.22;5022644;28;20025;-75
2022/03/24 06:02:32;;;;;;;41.53;17.73;;;;;;;2.56;51.19;94611.28;5022574;28;20068;-74
2022/03/24 06:04:58;;;;;;;56.97;20.88;;;;;;;2.69;50.72;94598.84;5022615;28;20024;-75
2022/03/24 06:07:24;;;;;;;58.72;18.30;;;;;;;2.73;50.82;94611.25;5022699;28;20056;-75
2022/03/24 06:09:50;;;;;;;53.20;19.75;;;;;;;2.82;50.92;94619.53;5022742;28;20316;-75
2022/03/24 06:12:16;;;;;;;42.65;19.25;;;;;;;2.94;50.19;94612.28;5022572;28;20022;-74
2022/03/24 06:14:42;;;;;;;58.42;19.67;;;;;;;3.09;50.02;94621.41;5022529;28;20036;-74
2022/03/24 06:17:09;;;;;;;53.22;19.20;;;;;;;3.24;49.80;94618.13;5022436;28;20101;-74
2022/03/24 06:19:36;;;;;;;38.78;18.42;;;;;;;3.27;49.15;94618.41;5022601;28;20041;-74
2022/03/24 06:22:03;;;;;;;70.57;18.73;;;;;;;3.34;48.93;94621.66;5022544;28;20224;-75
2022/03/24 06:24:32;;;;;;;51.22;18.98;;;;;;;3.41;48.25;94611.72;5022638;28;20022;-74
2022/03/24 06:26:58;;;;;;;51.28;17.77;;;;;;;3.51;48.06;94611.00;5026105;28;20043;-74
2022/03/24 06:29:24;;;;;;;54.80;18.88;;;;;;;3.60;48.31;94613.97;5026238;28;20152;-75
2022/03/24 06:31:49;;;;;;;48.40;17.85;;;;;;;3.68;48.07;94600.34;5026459;28;20030;-74
2022/03/24 06:34:15;;;;;;;51.75;17.38;;;;;;;3.75;48.26;94608.84;5026350;28;20046;-74
2022/03/24 06:36:41;;;;;;;56.33;17.00;;;;;;;3.89;48.11;94595.22;5026202;28;20021;-74
2022/03/24 06:39:07;;;;;;;43.05;16.30;;;;;;;3.97;47.75;94602.69;5026231;28;20021;-75
2022/03/24 06:41:33;;;;;;;53.08;16.23;;;;;;;4.10;47.26;94612.81;5026197;28;20080;-74
2022/03/24 06:43:59;;;;;;;44.05;15.65;;;;;;;4.17;46.22;94608.13;5026091;28;20021;-75
2022/03/24 06:46:26;;;;;;;56.15;16.08;;;;;;;4.27;46.36;94609.22;5025975;28;20099;-74
2022/03/24 06:48:52;;;;;;;42.42;16.35;;;;;;;4.35;46.42;94614.78;5026219;28;20198;-75
2022/03/24 06:51:18;;;;;;;46.35;15.98;;;;;;;4.52;45.84;94617.28;5025874;28;20042;-75
2022/03/24 06:53:44;;;;;;;40.80;16.73;;;;;;;4.58;45.57;94597.78;5026093;28;20049;-74
2022/03/24 06:56:10;;;;;;;60.35;16.85;;;;;;;4.75;45.23;94608.16;5025939;28;20017;-75
2022/03/24 06:58:35;;;;;;;50.88;17.08;;;;;;;4.92;44.56;94607.94;5025477;28;20025;-75
2022/03/24 07:01:01;;;;;;;53.50;17.63;;;;;;;4.99;44.19;94595.28;5025874;28;20076;-76
2022/03/24 07:03:27;;;;;;;47.15;17.30;;;;;;;5.09;44.24;94593.72;5025876;28;20025;-74
2022/03/24 07:05:52;;;;;;;49.38;19.33;;;;;;;5.20;43.81;94598.78;5025820;28;20026;-76
2022/03/24 07:08:18;;;;;;;65.70;18.00;;;;;;;5.31;44.20;94593.53;5025393;28;20128;-75
2022/03/24 07:10:44;;;;;;;44.45;16.90;;;;;;;5.45;43.36;94601.75;5025369;28;20076;-75
2022/03/24 07:13:10;;;;;;;58.75;18.70;;;;;;;5.58;43.00;94591.44;5025276;28;20022;-75
2022/03/24 07:15:36;;;;;;;40.13;15.77;;;;;;;5.72;42.37;94594.38;5025274;28;20253;-79
2022/03/24 07:18:01;;;;;;;50.00;16.02;;;;;;;5.85;42.45;94592.25;5025378;28;20072;-78
2022/03/24 07:20:27;;;;;;;45.20;15.23;;;;;;;6.01;41.75;94602.59;5025511;28;20024;-78
2022/03/24 07:22:52;;;;;;;44.65;15.40;;;;;;;6.13;41.10;94604.19;5025717;28;20022;-79
2022/03/24 07:25:18;;;;;;;35.90;15.50;;;;;;;6.27;40.69;94599.94;5025414;28;20220;-79
2022/03/24 07:27:43;;;;;;;46.42;17.40;;;;;;;6.39;40.40;94599.63;5025357;28;20025;-80
2022/03/24 07:30:10;;;;;;;42.38;15.60;;;;;;;6.51;40.04;94608.06;5025268;28;20018;-80
2022/03/24 07:32:37;;;;;;;55.90;15.40;;;;;;;6.68;39.33;94601.69;5025086;28;20060;-72
2022/03/24 07:35:05;;;;;;;40.15;15.45;;;;;;;6.77;39.48;94603.50;5024854;28;20018;-72
2022/03/24 07:37:31;;;;;;;39.95;14.73;;;;;;;6.94;39.01;94605.84;5023487;28;20029;-72
2022/03/24 07:39:57;;;;;;;45.08;15.32;;;;;;;7.05;39.05;94600.50;5024865;28;20018;-72
2022/03/24 07:42:23;;;;;;;35.47;14.88;;;;;;;7.22;38.56;94595.63;5024923;28;20021;-71
2022/03/24 07:44:48;;;;;;;42.97;14.55;;;;;;;7.34;38.29;94597.94;5024955;28;20018;-71
2022/03/24 07:47:15;;;;;;;36.08;14.10;;;;;;;7.51;37.93;94594.91;5024708;28;20042;-72
2022/03/24 07:49:40;;;;;;;41.35;14.50;;;;;;;7.59;37.53;94591.69;5024761;28;20048;-71
2022/03/24 07:52:12;;;;;;;44.88;14.52;;;;;;;7.63;37.69;94595.38;5024627;28;20046;-71
2022/03/24 07:54:56;;;;;;;34.22;15.18;;;;;;;7.71;37.54;94594.00;5024783;28;20048;-71
2022/03/24 07:57:25;;;;;;;44.70;15.85;;;;;;;7.80;37.65;94589.69;5024668;28;20092;-71
2022/03/24 07:59:51;;;;;;;47.67;15.02;;;;;;;7.87;37.68;94592.03;5024613;28;20260;-72
2022/03/24 08:02:17;;;;;;;45.08;15.95;;;;;;;8.03;36.85;94586.31;5024603;28;20100;-71
2022/03/24 08:04:43;;;;;;;40.88;17.05;;;;;;;8.07;37.18;94594.50;5024742;28;20221;-72
2022/03/24 08:07:09;;;;;;;41.72;16.83;;;;;;;8.22;36.78;94589.06;5024359;28;20034;-72
2022/03/24 08:09:34;;;;;;;61.00;17.35;;;;;;;8.39;36.97;94582.53;5024264;28;20096;-72
2022/03/24 08:12:00;;;;;;;53.90;15.40;;;;;;;8.49;36.51;94577.16;5024228;28;20026;-72
2022/03/24 08:14:26;;;;;;;36.08;14.10;;;;;;;8.64;35.67;94587.59;5024567;28;20036;-72
2022/03/24 08:16:51;;;;;;;45.45;14.38;;;;;;;8.82;35.46;94580.75;5024262;28;20042;-72
2022/03/24 08:19:17;;;;;;;42.80;14.65;;;;;;;8.90;35.14;94571.38;5023982;28;20076;-72
2022/03/24 08:21:43;;;;;;;41.55;13.73;;;;;;;8.99;35.18;94582.16;5024115;28;20029;-72
2022/03/24 08:24:09;;;;;;;39.78;15.27;;;;;;;9.02;35.15;94577.06;5024177;28;20039;-72
2022/03/24 08:26:35;;;;;;;38.28;13.90;;;;;;;9.22;35.00;94575.25;5023437;28;20053;-72
2022/03/24 08:29:01;;;;;;;38.40;12.85;;;;;;;9.39;34.12;94575.53;5024141;28;20030;-71
2022/03/24 08:31:26;;;;;;;44.30;14.10;;;;;;;9.49;33.83;94565.81;5024394;28;20030;-71
2022/03/24 08:33:52;;;;;;;35.92;12.80;;;;;;;9.58;33.95;94561.41;5023952;28;20367;-72
2022/03/24 08:36:18;;;;;;;39.53;12.85;;;;;;;9.78;33.79;94569.09;5023870;28;20159;-71
2022/03/24 08:38:43;;;;;;;21.52;9.68;;;;;;;9.90;33.24;94562.53;5023738;28;20079;-71
2022/03/24 08:41:09;;;;;;;33.85;10.38;;;;;;;10.02;33.23;94555.66;5023633;28;20037;-71
2022/03/24 08:43:34;;;;;;;29.27;10.02;;;;;;;10.13;33.01;94558.16;5023652;28;20048;-71
2022/03/24 08:46:00;;;;;;;31.95;10.18;;;;;;;10.33;32.97;94557.03;5023771;28;20032;-75
2022/03/24 08:48:25;;;;;;;34.42;9.10;;;;;;;10.49;32.80;94560.22;5023836;28;20026;-81
2022/03/24 08:50:51;;;;;;;21.15;7.00;;;;;;;10.59;32.10;94558.16;5023631;28;20320;-81
2022/03/24 08:53:16;;;;;;;29.38;8.05;;;;;;;10.76;32.42;94554.09;5023718;28;20101;-82
2022/03/24 08:55:42;;;;;;;29.13;8.85;;;;;;;10.89;32.50;94564.00;5023690;28;20064;-81
2022/03/24 08:58:08;;;;;;;28.77;6.97;;;;;;;11.02;31.17;94554.41;5006095;28;20031;-81
2022/03/24 09:00:34;;;;;;;18.83;6.78;;;;;;;11.15;30.90;94550.91;5023469;28;20018;-81
2022/03/24 09:03:00;;;;;;;17.92;6.47;;;;;;;11.24;30.72;94553.66;5023547;28;20388;-81
2022/03/24 09:05:26;;;;;;;27.48;6.55;;;;;;;11.35;29.82;94555.00;5023489;28;20025;-81
2022/03/24 09:07:52;;;;;;;22.13;6.88;;;;;;;11.49;29.67;94563.00;5023536;28;20064;-80
2022/03/24 09:10:18;;;;;;;13.57;5.40;;;;;;;11.59;28.47;94543.28;5023486;28;20021;-79
2022/03/24 09:12:45;;;;;;;18.30;5.25;;;;;;;11.72;27.77;94547.78;5023405;28;20033;-80
2022/03/24 09:15:13;;;;;;;11.43;5.00;;;;;;;11.81;27.63;94545.19;5023119;28;20032;-80
2022/03/24 09:17:39;;;;;;;31.13;6.43;;;;;;;11.93;27.28;94534.00;5023304;28;20042;-78
2022/03/24 09:20:14;;;;;;;14.50;5.30;;;;;;;12.07;26.71;94541.91;5023315;28;20216;-77
2022/03/24 09:22:41;;;;;;;16.65;4.97;;;;;;;12.16;26.24;94538.19;5023088;28;20033;-78
2022/03/24 09:25:09;;;;;;;17.92;5.72;;;;;;;12.19;25.76;94537.59;5023128;28;20128;-77
2022/03/24 09:27:36;;;;;;;19.17;5.85;;;;;;;12.31;25.89;94541.56;5023153;28;20068;-75
2022/03/24 09:30:07;;;;;;;20.17;4.70;;;;;;;12.34;25.37;94546.31;5023056;28;20041;-76
2022/03/24 09:32:33;;;;;;;10.80;5.38;;;;;;;12.34;25.82;94539.09;5005335;28;20022;-75
2022/03/24 09:34:58;;;;;;;13.02;5.47;;;;;;;12.40;25.58;94535.19;5023065;28;20216;-75
2022/03/24 09:37:24;;;;;;;19.88;6.30;;;;;;;12.49;24.59;94524.53;5023408;28;20026;-74
2022/03/24 09:39:50;;;;;;;11.90;4.68;;;;;;;12.54;24.45;94524.41;5022915;28;20018;-75
2022/03/24 09:42:17;;;;;;;13.85;4.72;;;;;;;12.65;23.89;94522.22;5022841;28;20247;-74
2022/03/24 09:44:44;;;;;;;10.60;4.88;;;;;;;12.76;23.73;94522.72;5022979;28;20018;-77
2022/03/24 09:47:12;;;;;;;14.27;4.88;;;;;;;12.78;24.04;94515.19;5022998;28;20036;-75
2022/03/24 09:49:39;;;;;;;12.43;5.22;;;;;;;12.87;23.72;94515.22;5022973;28;20232;-73
2022/03/24 09:52:05;;;;;;;13.27;5.00;;;;;;;12.91;23.31;94506.25;5022586;28;20065;-75
2022/03/24 09:54:31;;;;;;;12.90;4.63;;;;;;;12.95;22.67;94528.63;5022980;28;20309;-75
2022/03/24 09:57:02;;;;;;;13.38;5.25;;;;;;;12.99;22.40;94508.16;5022955;28;20087;-75
2022/03/24 09:59:27;;;;;;;11.38;4.45;;;;;;;13.07;22.51;94509.28;5005693;28;20255;-75
2022/03/24 10:01:55;;;;;;;13.32;5.28;;;;;;;13.16;22.44;94496.69;5026869;28;20045;-75
2022/03/24 10:04:21;;;;;;;15.10;5.38;;;;;;;13.21;22.33;94493.88;5025822;28;20251;-75
2022/03/24 10:07:03;;;;;;;11.45;4.97;;;;;;;13.39;22.78;94500.06;5026799;28;20072;-75
2022/03/24 10:09:45;;;;;;;17.38;6.45;;;;;;;13.61;22.66;94490.28;5026682;28;20033;-76
2022/03/24 10:12:42;;;;;;;8.50;4.70;;;;;;;13.72;20.28;94493.41;5026841;28;20093;-75
2022/03/24 10:15:10;;;;;;;11.07;5.30;;;;;;;13.75;20.85;94498.94;5026516;28;20017;-76
2022/03/24 10:17:37;;;;;;;27.88;5.70;;;;;;;13.71;21.05;94484.59;5026432;28;20025;-77
2022/03/24 10:20:08;;;;;;;12.68;6.10;;;;;;;13.84;20.31;94483.63;5008803;28;20029;-76
2022/03/24 10:22:36;;;;;;;18.58;5.45;;;;;;;13.97;19.15;94483.78;5025968;28;20032;-76
2022/03/24 10:25:18;;;;;;;15.15;4.70;;;;;;;13.99;19.78;94484.25;5026249;28;20309;-76
2022/03/24 10:27:48;;;;;;;;;;;;;;;13.98;19.04;94475.41;5026637;28;20022;-76
2022/03/24 10:30:14;;;;;;;17.73;4.30;;;;;;;14.06;19.56;94471.13;5026245;28;19905;-77
2022/03/24 10:32:39;;;;;;;13.13;5.07;;;;;;;14.22;19.67;94469.50;5026343;28;20036;-76
2022/03/24 10:35:10;;;;;;;13.43;6.05;;;;;;;14.20;19.50;94461.00;5026266;28;20018;-76
2022/03/24 10:37:36;;;;;;;10.48;4.22;;;;;;;14.13;19.21;94454.56;5026262;28;20028;-75
2022/03/24 10:40:11;;;;;;;10.10;4.65;;;;;;;14.20;19.20;94450.25;5026242;28;20022;-75
2022/03/24 10:42:39;;;;;;;10.65;4.68;;;;;;;14.25;19.48;94466.19;5026066;28;20268;-76
2022/03/24 10:45:21;;;;;;;9.88;4.38;;;;;;;14.34;19.57;94451.97;5026001;28;20017;-76
2022/03/24 10:47:55;;;;;;;11.48;4.55;;;;;;;14.38;18.91;94447.53;5026156;28;20025;-78
2022/03/24 10:50:42;;;;;;;12.57;4.70;;;;;;;14.42;19.90;94448.44;5008550;28;20228;-77
2022/03/24 10:53:15;;;;;;;10.77;4.47;;;;;;;14.56;19.30;94435.63;5025797;28;20036;-77
2022/03/24 10:55:44;;;;;;;17.00;5.97;;;;;;;14.62;19.30;94444.28;5025868;28;20335;-77
2022/03/24 10:58:32;;;;;;;13.30;4.80;;;;;;;14.63;19.00;94435.13;5025830;28;20041;-78
2022/03/24 11:01:01;;;;;;;7.88;4.53;;;;;;;14.64;19.05;94432.13;5026659;28;20251;-78
2022/03/24 11:03:27;;;;;;;10.98;5.05;;;;;;;14.72;19.50;94429.72;5027370;28;20034;-77
2022/03/24 11:06:08;;;;;;;12.57;4.68;;;;;;;14.64;19.03;94434.03;5026286;28;20021;-76
2022/03/24 11:08:34;;;;;;;15.25;4.38;;;;;;;14.61;18.93;94419.38;5025799;28;20018;-75
2022/03/24 11:10:59;;;;;;;14.02;5.28;;;;;;;14.77;19.31;94427.63;5025627;28;20068;-75
2022/03/24 11:13:29;;;;;;;11.27;5.15;;;;;;;14.78;19.24;94418.47;5025687;28;20022;-75
2022/03/24 11:15:56;;;;;;;12.93;5.07;;;;;;;14.87;18.63;94414.94;5025281;28;20223;-75
2022/03/24 11:18:25;;;;;;;11.05;4.35;;;;;;;14.93;18.68;94408.28;5025383;28;20022;-75
2022/03/24 11:20:53;;;;;;;14.30;5.35;;;;;;;15.17;19.02;94413.78;5025338;28;20032;-75
2022/03/24 11:23:29;;;;;;;19.48;6.00;;;;;;;15.30;19.33;94411.13;5025835;28;20029;-75
2022/03/24 11:25:57;;;;;;;15.43;6.43;;;;;;;15.25;18.59;94404.06;5026309;28;20252;-74
2022/03/24 11:28:23;;;;;;;17.08;6.05;;;;;;;15.39;18.93;94401.13;5025166;28;20248;-74
2022/03/24 11:30:50;;;;;;;13.68;5.05;;;;;;;15.40;18.88;94408.81;5025134;28;20104;-74
2022/03/24 11:33:17;;;;;;;13.43;5.97;;;;;;;15.40;18.84;94391.94;5025026;28;20036;-75